Time;durP1;ratioP1;P1;durP2;ratioP2;P2;SDS_P1;SDS_P2;PMS_P1;PMS_P2;Temp;Humidity;BMP_temperature;BMP_pressure;BME280_temperature;BME280_humidity;BME280_pressure;Samples;Min_cycle;Max_cycle;Signal;HPM_P1;HPM_P2
2023/12/19 00:05:44;;;;;;;233.10;217.30;;;5.60;99.90;;;;;;12360955;28;20409;-35
2023/12/19 00:11:46;;;;;;;238.77;222.30;;;5.60;99.90;;;;;;12379755;28;20058;-35
2023/12/19 00:17:49;;;;;;;252.13;234.55;;;5.60;99.90;;;;;;12396771;28;20055;-35
2023/12/19 00:23:51;;;;;;;250.45;233.07;;;5.70;99.90;;;;;;12439617;28;20053;-34
2023/12/19 00:29:53;;;;;;;248.57;231.65;;;5.70;99.90;;;;;;12411758;28;20055;-36
2023/12/19 00:35:55;;;;;;;249.65;232.90;;;5.70;99.90;;;;;;12369680;28;20051;-35
2023/12/19 00:41:57;;;;;;;251.85;234.65;;;5.80;99.90;;;;;;12420130;28;20157;-35
2023/12/19 00:47:59;;;;;;;239.15;222.57;;;5.80;99.90;;;;;;12439424;28;20051;-35
2023/12/19 00:54:01;;;;;;;249.00;231.77;;;5.80;99.90;;;;;;12416679;28;20046;-35
2023/12/19 01:00:04;;;;;;;240.20;223.60;;;5.80;99.90;;;;;;12327348;28;20059;-35
2023/12/19 01:06:06;;;;;;;248.68;231.18;;;5.80;99.90;;;;;;12347314;28;20507;-35
2023/12/19 01:12:07;;;;;;;279.13;260.08;;;5.70;99.90;;;;;;12422484;28;20059;-35
2023/12/19 01:18:09;;;;;;;300.95;281.27;;;5.70;99.90;;;;;;12429066;28;20053;-35
2023/12/19 01:24:11;;;;;;;314.05;293.42;;;5.60;99.90;;;;;;12446736;28;20064;-35
2023/12/19 01:30:13;;;;;;;316.92;296.52;;;5.60;99.90;;;;;;12425323;28;20047;-35
2023/12/19 01:36:15;;;;;;;302.98;282.90;;;5.50;99.90;;;;;;12411876;28;20059;-35
2023/12/19 01:42:17;;;;;;;309.00;288.88;;;5.50;99.90;;;;;;12401093;28;20069;-35
2023/12/19 01:48:20;;;;;;;317.30;296.67;;;5.50;99.90;;;;;;12369988;28;20579;-35
2023/12/19 01:54:22;;;;;;;297.85;278.40;;;5.40;99.90;;;;;;12389870;28;20134;-35
2023/12/19 02:00:24;;;;;;;286.45;267.45;;;5.40;99.90;;;;;;12406750;28;20420;-35
2023/12/19 02:06:27;;;;;;;282.95;264.27;;;5.40;99.90;;;;;;12351049;28;20412;-35
2023/12/19 02:12:29;;;;;;;272.27;254.55;;;5.40;99.90;;;;;;12366443;28;20055;-35
2023/12/19 02:18:31;;;;;;;277.45;259.25;;;5.40;99.90;;;;;;12378191;28;20047;-35
2023/12/19 02:24:33;;;;;;;265.80;248.48;;;5.40;99.90;;;;;;12386159;28;20470;-35
2023/12/19 02:30:35;;;;;;;261.67;244.57;;;5.40;99.90;;;;;;12354586;28;20062;-35
2023/12/19 02:36:39;;;;;;;265.23;247.77;;;5.40;99.90;;;;;;12409709;28;20540;-35
2023/12/19 02:42:41;;;;;;;272.27;254.30;;;5.40;99.90;;;;;;12389055;28;20805;-35
2023/12/19 02:48:44;;;;;;;255.70;238.98;;;5.40;99.90;;;;;;12362058;28;20457;-34
2023/12/19 02:54:47;;;;;;;260.83;243.60;;;5.40;99.90;;;;;;12334387;28;20058;-36
2023/12/19 03:00:49;;;;;;;267.63;249.98;;;5.40;99.90;;;;;;12368919;28;20047;-35
2023/12/19 03:06:51;;;;;;;252.30;235.65;;;5.40;99.90;;;;;;12415243;28;20046;-35
2023/12/19 03:12:52;;;;;;;251.27;234.55;;;5.40;99.90;;;;;;12435687;28;20130;-35
2023/12/19 03:18:54;;;;;;;243.35;226.98;;;5.40;99.90;;;;;;12333065;28;20099;-35
2023/12/19 03:24:56;;;;;;;267.98;250.52;;;5.40;99.90;;;;;;12367928;28;20058;-35
2023/12/19 03:30:58;;;;;;;266.13;248.48;;;5.40;99.90;;;;;;12376887;28;20390;-35
2023/12/19 03:37:00;;;;;;;288.13;269.52;;;5.40;99.90;;;;;;12353853;28;20047;-35
2023/12/19 03:43:03;;;;;;;292.63;274.02;;;5.40;99.90;;;;;;12387073;28;20054;-35
2023/12/19 03:49:05;;;;;;;285.67;267.80;;;5.30;99.90;;;;;;12417381;28;20051;-35
2023/12/19 03:55:08;;;;;;;294.02;275.33;;;5.30;99.90;;;;;;12362263;28;20058;-35
2023/12/19 04:01:12;;;;;;;288.13;269.83;;;5.20;99.90;;;;;;12381446;28;20056;-35
2023/12/19 04:07:14;;;;;;;284.33;266.13;;;5.30;99.90;;;;;;12370920;28;20046;-35
2023/12/19 04:13:16;;;;;;;294.25;276.15;;;5.30;99.90;;;;;;12356815;28;20071;-35
2023/12/19 04:19:21;;;;;;;268.75;251.93;;;5.30;99.90;;;;;;12394313;28;20141;-35
2023/12/19 04:25:24;;;;;;;269.23;252.25;;;5.30;99.90;;;;;;12360025;28;20057;-35
2023/12/19 04:31:26;;;;;;;261.58;245.07;;;5.30;99.90;;;;;;12428044;28;20409;-35
2023/12/19 04:37:28;;;;;;;264.25;247.95;;;5.40;99.90;;;;;;12370218;28;20048;-35
2023/12/19 04:43:30;;;;;;;269.95;253.15;;;5.40;99.90;;;;;;12379016;28;20055;-35
2023/12/19 04:49:32;;;;;;;257.02;240.88;;;5.40;99.90;;;;;;12331178;28;20047;-35
2023/12/19 04:55:34;;;;;;;270.10;253.13;;;5.40;99.90;;;;;;12347486;28;20051;-35
2023/12/19 05:01:40;;;;;;;251.20;235.38;;;5.50;99.90;;;;;;12362322;28;20058;-35
2023/12/19 05:07:42;;;;;;;270.08;253.45;;;5.40;99.90;;;;;;12407765;28;20051;-35
2023/12/19 05:13:44;;;;;;;272.10;254.98;;;5.40;99.90;;;;;;12431360;28;20048;-35
2023/12/19 05:19:46;;;;;;;260.25;243.68;;;5.50;99.90;;;;;;12404204;28;20051;-35
2023/12/19 05:25:54;;;;;;;279.67;262.25;;;5.50;99.90;;;;;;12374890;28;20131;-35
2023/12/19 05:31:57;;;;;;;268.27;251.30;;;5.60;99.90;;;;;;12406752;28;20519;-35
2023/12/19 05:37:59;;;;;;;266.65;249.88;;;5.50;99.90;;;;;;12426030;28;20039;-35
2023/12/19 05:44:00;;;;;;;267.00;250.23;;;5.60;99.90;;;;;;12394461;28;20410;-35
2023/12/19 05:50:03;;;;;;;250.80;234.82;;;5.60;99.90;;;;;;12389945;28;20419;-35
2023/12/19 05:56:10;;;;;;;264.63;247.73;;;5.70;99.90;;;;;;12343368;28;20043;-35
2023/12/19 06:02:12;;;;;;;269.08;251.93;;;5.70;99.90;;;;;;12405674;28;20055;-35
2023/12/19 06:08:17;;;;;;;264.73;247.95;;;5.70;99.90;;;;;;12455293;28;20134;-35
2023/12/19 06:14:18;;;;;;;;;;;5.70;99.90;;;;;;12390836;28;20071;-35
2023/12/19 06:20:20;;;;;;;248.90;233.15;;;5.70;99.90;;;;;;12441884;28;19983;-36
2023/12/19 06:26:22;;;;;;;246.13;230.60;;;5.60;99.90;;;;;;12403688;28;20055;-35
2023/12/19 06:32:24;;;;;;;262.42;246.05;;;5.70;99.90;;;;;;12379689;28;20041;-35
2023/12/19 06:38:26;;;;;;;265.77;248.93;;;5.70;99.90;;;;;;12401081;28;20093;-35
2023/12/19 06:44:28;;;;;;;259.70;243.02;;;5.70;99.90;;;;;;12404786;28;20051;-35
2023/12/19 06:50:30;;;;;;;255.38;239.20;;;5.70;99.90;;;;;;12379458;28;20062;-35
2023/12/19 06:56:31;;;;;;;255.40;239.45;;;5.70;99.90;;;;;;12380989;28;20039;-35
2023/12/19 07:02:35;;;;;;;259.65;243.48;;;5.70;99.90;;;;;;12371135;28;20131;-35
2023/12/19 07:08:37;;;;;;;265.50;249.05;;;5.70;99.90;;;;;;12429588;28;20416;-35
2023/12/19 07:14:47;;;;;;;269.90;253.30;;;5.80;99.90;;;;;;12405140;28;20079;-35
2023/12/19 07:20:49;;;;;;;269.58;253.02;;;5.80;99.90;;;;;;12340404;28;20049;-35
2023/12/19 07:26:52;;;;;;;269.10;252.23;;;5.80;99.90;;;;;;12321000;28;20061;-35
2023/12/19 07:32:54;;;;;;;270.27;253.52;;;5.90;99.90;;;;;;12365352;28;20454;-35
2023/12/19 07:38:57;;;;;;;278.70;261.77;;;5.90;99.90;;;;;;12362673;28;20130;-35
2023/12/19 07:44:59;;;;;;;274.10;257.38;;;5.90;99.90;;;;;;12368397;28;20530;-35
2023/12/19 07:51:01;;;;;;;271.50;254.90;;;5.90;99.90;;;;;;12442747;28;20056;-35
2023/12/19 07:57:03;;;;;;;276.73;259.75;;;6.00;99.90;;;;;;12349091;28;20184;-35
2023/12/19 08:03:05;;;;;;;278.80;262.10;;;6.00;99.90;;;;;;12348785;28;20046;-35
2023/12/19 08:09:11;;;;;;;284.92;267.92;;;6.10;99.90;;;;;;12433997;28;20047;-36
2023/12/19 08:15:13;;;;;;;274.02;257.65;;;6.00;99.90;;;;;;12418518;28;20090;-35
2023/12/19 08:21:15;;;;;;;275.17;258.40;;;6.10;99.90;;;;;;12398639;28;20139;-35
2023/12/19 08:27:18;;;;;;;259.50;243.43;;;6.10;99.90;;;;;;12355325;28;20598;-35
2023/12/19 08:33:19;;;;;;;264.33;248.13;;;6.10;99.90;;;;;;12410306;28;20046;-35
2023/12/19 08:39:23;;;;;;;280.37;263.27;;;6.20;99.90;;;;;;12385039;28;20381;-35
2023/12/19 08:45:26;;;;;;;283.55;266.42;;;6.30;99.90;;;;;;12387539;28;20053;-35
2023/12/19 08:51:28;;;;;;;273.45;256.80;;;6.30;99.90;;;;;;12341995;28;20053;-35
2023/12/19 08:57:30;;;;;;;280.42;263.45;;;6.30;99.90;;;;;;12351754;28;20052;-35
2023/12/19 09:03:32;;;;;;;286.45;269.05;;;6.30;99.90;;;;;;12352807;28;20051;-35
2023/12/19 09:09:34;;;;;;;293.40;275.67;;;6.30;99.90;;;;;;12443806;28;20055;-34
2023/12/19 09:15:36;;;;;;;307.95;289.50;;;6.30;99.90;;;;;;12393142;28;20133;-35
2023/12/19 09:21:38;;;;;;;294.23;276.50;;;6.40;99.90;;;;;;12424261;28;20459;-35
2023/12/19 09:27:42;;;;;;;292.85;275.60;;;6.40;99.90;;;;;;12378759;28;20061;-35
2023/12/19 09:33:44;;;;;;;294.93;277.10;;;6.40;99.90;;;;;;12373619;28;20051;-35
2023/12/19 09:39:46;;;;;;;299.80;281.65;;;6.50;99.90;;;;;;12373599;28;20285;-35
2023/12/19 09:45:48;;;;;;;302.92;284.65;;;6.50;99.90;;;;;;12332742;28;20142;-35
2023/12/19 09:51:55;;;;;;;277.42;260.25;;;6.50;99.90;;;;;;12402653;28;20510;-35
2023/12/19 09:58:00;;;;;;;284.90;267.45;;;6.60;99.90;;;;;;12434023;28;20076;-35
2023/12/19 10:04:02;;;;;;;283.70;266.38;;;6.60;99.90;;;;;;12418665;28;20053;-35
2023/12/19 10:10:07;;;;;;;285.48;267.98;;;6.60;99.90;;;;;;12445772;28;20086;-36
2023/12/19 10:16:17;;;;;;;310.88;292.17;;;6.60;99.90;;;;;;12448645;28;20482;-35
2023/12/19 10:22:34;;;;;;;307.67;288.98;;;6.70;99.90;;;;;;12363591;28;20047;-35
2023/12/19 10:28:37;;;;;;;300.65;282.20;;;6.70;99.90;;;;;;12349902;28;20143;-35
2023/12/19 10:34:40;;;;;;;318.42;298.88;;;6.70;99.90;;;;;;12393878;28;20136;-35
2023/12/19 10:40:42;;;;;;;321.10;301.08;;;6.80;99.90;;;;;;12367711;28;20055;-36
2023/12/19 10:46:45;;;;;;;330.48;310.20;;;6.70;99.90;;;;;;12406821;28;20078;-35
2023/12/19 10:52:53;;;;;;;344.75;323.15;;;6.70;99.90;;;;;;12378539;28;20048;-35
2023/12/19 10:58:59;;;;;;;346.77;325.60;;;6.80;99.90;;;;;;12410977;28;20397;-35
2023/12/19 11:05:25;;;;;;;323.70;303.83;;;6.80;99.90;;;;;;12407165;28;20506;-35
2023/12/19 11:11:35;;;;;;;343.10;322.27;;;6.80;99.90;;;;;;12380577;28;20512;-35
2023/12/19 11:17:53;;;;;;;330.27;310.58;;;6.80;99.90;;;;;;12440216;28;20056;-35
2023/12/19 11:24:17;;;;;;;328.80;308.95;;;6.80;99.90;;;;;;12425282;28;20091;-35
2023/12/19 11:30:36;;;;;;;339.27;318.88;;;6.80;99.90;;;;;;12420785;28;20527;-36
2023/12/19 11:36:38;;;;;;;347.77;327.08;;;6.80;99.90;;;;;;12404454;28;20093;-35
2023/12/19 11:42:40;;;;;;;326.80;307.10;;;6.80;99.90;;;;;;12450873;28;20054;-36
2023/12/19 11:48:48;;;;;;;319.05;300.00;;;6.80;99.90;;;;;;12441006;28;20054;-35
2023/12/19 11:54:51;;;;;;;308.60;290.05;;;6.90;99.90;;;;;;12446521;28;20488;-36
2023/12/19 12:01:02;;;;;;;348.00;327.42;;;6.90;99.90;;;;;;12379399;28;20049;-35
2023/12/19 12:07:04;;;;;;;345.40;324.90;;;6.90;99.90;;;;;;12430883;28;20099;-36
2023/12/19 12:13:06;;;;;;;331.95;312.10;;;6.90;99.90;;;;;;12409137;28;20048;-35
2023/12/19 12:19:16;;;;;;;329.95;310.30;;;6.90;99.90;;;;;;12449899;28;20051;-35
2023/12/19 12:25:22;;;;;;;329.38;309.98;;;6.90;99.90;;;;;;12379765;28;20051;-36
2023/12/19 12:31:29;;;;;;;330.33;310.70;;;6.90;99.90;;;;;;12365624;28;20043;-35
2023/12/19 12:37:32;;;;;;;340.63;320.52;;;6.90;99.90;;;;;;12441335;28;20040;-35
2023/12/19 12:43:57;;;;;;;324.05;305.05;;;7.00;99.90;;;;;;12429359;28;20146;-35
2023/12/19 12:50:04;;;;;;;346.15;325.60;;;6.90;99.90;;;;;;12436836;28;20058;-36
2023/12/19 12:56:18;;;;;;;331.60;312.05;;;6.90;99.90;;;;;;12425293;28;20045;-36
2023/12/19 13:02:20;;;;;;;334.90;315.05;;;7.00;99.90;;;;;;12403328;28;20055;-35
2023/12/19 13:08:22;;;;;;;347.35;327.08;;;6.90;99.90;;;;;;12406734;28;20082;-35
2023/12/19 13:14:25;;;;;;;346.42;325.67;;;6.90;99.90;;;;;;12450542;28;20058;-35
2023/12/19 13:20:27;;;;;;;322.83;303.42;;;7.00;99.90;;;;;;12409823;28;20056;-36
2023/12/19 13:26:32;;;;;;;353.10;331.98;;;7.00;99.90;;;;;;12432687;28;20180;-35
2023/12/19 13:32:40;;;;;;;369.27;347.10;;;7.00;99.90;;;;;;12384016;28;20402;-36
2023/12/19 13:38:43;;;;;;;388.48;365.02;;;7.00;99.90;;;;;;12370710;28;20058;-35
2023/12/19 13:44:45;;;;;;;387.85;364.38;;;7.00;99.90;;;;;;12423459;28;20444;-35
2023/12/19 13:50:48;;;;;;;380.10;357.02;;;7.00;99.90;;;;;;12464905;28;20054;-35
2023/12/19 13:56:50;;;;;;;394.92;371.40;;;7.00;99.90;;;;;;12450367;28;20048;-35
2023/12/19 14:02:51;;;;;;;395.73;372.13;;;6.90;99.90;;;;;;12383865;28;20048;-35
2023/12/19 14:08:53;;;;;;;386.65;363.80;;;7.00;99.90;;;;;;12385245;28;20123;-36
2023/12/19 14:14:55;;;;;;;381.27;358.83;;;6.90;99.90;;;;;;12378644;28;20062;-35
2023/12/19 14:20:57;;;;;;;369.60;348.13;;;6.90;99.90;;;;;;12353240;28;20075;-35
2023/12/19 14:26:59;;;;;;;349.38;329.02;;;6.90;99.90;;;;;;12462786;28;20402;-35
2023/12/19 14:33:01;;;;;;;367.98;346.38;;;6.90;99.90;;;;;;12454535;28;20522;-35
2023/12/19 14:39:04;;;;;;;363.35;341.90;;;6.90;99.90;;;;;;12400025;28;20075;-35
2023/12/19 14:45:06;;;;;;;356.80;335.77;;;7.00;99.90;;;;;;12406139;28;20400;-35
2023/12/19 14:51:08;;;;;;;368.10;346.35;;;6.90;99.90;;;;;;12387796;28;20047;-36
2023/12/19 14:57:10;;;;;;;388.13;365.10;;;6.90;99.90;;;;;;12328427;28;20086;-36
2023/12/19 15:03:12;;;;;;;386.58;363.50;;;7.00;99.90;;;;;;12388571;28;20271;-35
2023/12/19 15:09:18;;;;;;;394.05;370.60;;;6.90;99.90;;;;;;12453708;28;20048;-35
2023/12/19 15:15:21;;;;;;;400.45;376.75;;;7.00;99.90;;;;;;12428912;28;20051;-35
2023/12/19 15:21:23;;;;;;;384.27;361.33;;;6.90;99.90;;;;;;12405761;28;20047;-35
2023/12/19 15:27:25;;;;;;;383.00;359.95;;;6.90;99.90;;;;;;12385348;28;20094;-35
2023/12/19 15:33:27;;;;;;;369.52;347.27;;;6.90;99.90;;;;;;12451679;28;20419;-35
2023/12/19 15:39:29;;;;;;;363.10;341.33;;;7.00;99.90;;;;;;12394911;28;20498;-35
2023/12/19 15:45:31;;;;;;;367.65;345.17;;;7.00;99.90;;;;;;12397283;28;20165;-35
2023/12/19 15:51:33;;;;;;;368.30;346.05;;;7.00;99.90;;;;;;12406847;28;20058;-35
2023/12/19 15:57:35;;;;;;;359.40;337.30;;;7.00;99.90;;;;;;12431505;28;20051;-35
2023/12/19 16:03:37;;;;;;;374.73;351.50;;;7.20;99.90;;;;;;12411137;28;20051;-35
2023/12/19 16:09:41;;;;;;;385.17;361.38;;;7.00;99.90;;;;;;12469002;28;20052;-35
2023/12/19 16:15:43;;;;;;;404.42;379.63;;;7.10;99.90;;;;;;12393754;28;20976;-35
2023/12/19 16:21:45;;;;;;;396.02;371.80;;;7.00;99.90;;;;;;12461452;28;20047;-35
2023/12/19 16:27:47;;;;;;;394.38;370.52;;;7.00;99.90;;;;;;12358875;28;20055;-35
2023/12/19 16:33:49;;;;;;;398.38;373.95;;;7.00;99.90;;;;;;12437240;28;20058;-35
2023/12/19 16:39:53;;;;;;;385.08;361.67;;;7.00;99.90;;;;;;12424350;28;20051;-35
2023/12/19 16:45:55;;;;;;;385.90;362.58;;;6.90;99.90;;;;;;12396561;28;20046;-35
2023/12/19 16:51:57;;;;;;;384.42;360.85;;;7.10;99.90;;;;;;12420963;28;20557;-35
2023/12/19 16:58:00;;;;;;;384.60;360.80;;;7.10;99.90;;;;;;12399682;28;20058;-35
2023/12/19 17:04:01;;;;;;;380.05;357.02;;;7.10;99.90;;;;;;12411318;28;20048;-35
2023/12/19 17:10:05;;;;;;;376.00;352.92;;;7.10;99.90;;;;;;12381627;28;20050;-35
2023/12/19 17:16:07;;;;;;;367.47;345.10;;;7.10;99.90;;;;;;12433287;28;20101;-35
2023/12/19 17:22:09;;;;;;;353.45;331.98;;;7.10;99.90;;;;;;12458545;28;20193;-35
2023/12/19 17:28:11;;;;;;;348.77;327.40;;;7.10;99.90;;;;;;12367771;28;20047;-35
2023/12/19 17:34:13;;;;;;;342.13;321.08;;;7.20;99.90;;;;;;12387699;28;20050;-35
2023/12/19 17:40:16;;;;;;;349.65;328.08;;;7.10;99.90;;;;;;12401434;28;20045;-35
2023/12/19 17:46:18;;;;;;;338.77;318.10;;;7.20;99.90;;;;;;12434351;28;20084;-35
2023/12/19 17:52:20;;;;;;;347.13;325.85;;;7.20;99.90;;;;;;12427805;28;20050;-35
2023/12/19 17:58:21;;;;;;;346.88;325.55;;;7.20;99.90;;;;;;12399027;28;20488;-35
2023/12/19 18:04:23;;;;;;;360.92;339.00;;;7.10;99.90;;;;;;12422650;28;20185;-36
2023/12/19 18:10:25;;;;;;;368.08;345.38;;;7.00;99.90;;;;;;12475370;28;20398;-35
2023/12/19 18:16:27;;;;;;;347.23;325.88;;;7.00;99.90;;;;;;12433369;28;20424;-35
2023/12/19 18:22:29;;;;;;;349.70;328.17;;;6.90;99.90;;;;;;12516005;28;20471;-35
2023/12/19 18:28:31;;;;;;;339.92;318.92;;;6.90;99.90;;;;;;12462062;28;20195;-36
2023/12/19 18:34:33;;;;;;;335.65;315.00;;;6.90;99.90;;;;;;12488745;28;20058;-36
2023/12/19 18:40:35;;;;;;;325.27;304.98;;;6.90;99.90;;;;;;12360441;28;20048;-35
2023/12/19 18:46:39;;;;;;;329.13;308.83;;;6.90;99.90;;;;;;12352984;28;20484;-36
2023/12/19 18:52:42;;;;;;;318.25;298.77;;;6.80;99.90;;;;;;12397554;28;20054;-35
2023/12/19 18:58:45;;;;;;;334.25;313.92;;;6.80;99.90;;;;;;12385388;28;20067;-35
2023/12/19 19:04:48;;;;;;;333.05;312.55;;;6.80;99.90;;;;;;12398979;28;20399;-36
2023/12/19 19:10:50;;;;;;;334.17;313.60;;;6.80;99.90;;;;;;12421493;28;20062;-36
2023/12/19 19:16:51;;;;;;;351.08;329.52;;;6.80;99.90;;;;;;12414635;28;20136;-35
2023/12/19 19:22:53;;;;;;;349.35;328.27;;;6.70;99.90;;;;;;12440235;28;20047;-35
2023/12/19 19:28:59;;;;;;;349.02;328.10;;;6.80;99.90;;;;;;12406516;28;20418;-35
2023/12/19 19:35:01;;;;;;;351.25;329.85;;;6.80;99.90;;;;;;12440770;28;20169;-35
2023/12/19 19:41:04;;;;;;;343.50;322.38;;;6.80;99.90;;;;;;12386020;28;20059;-35
2023/12/19 19:47:07;;;;;;;347.13;325.70;;;6.80;99.90;;;;;;12377453;28;20050;-36
2023/12/19 19:53:09;;;;;;;339.35;318.30;;;6.90;99.90;;;;;;12459118;28;20076;-35
2023/12/19 19:59:11;;;;;;;321.45;301.83;;;6.80;99.90;;;;;;12359617;28;20426;-35
2023/12/19 20:05:14;;;;;;;333.80;313.13;;;6.80;99.90;;;;;;12443884;28;20505;-35
2023/12/19 20:11:18;;;;;;;345.75;324.25;;;6.80;99.90;;;;;;12350856;28;20074;-35
2023/12/19 20:17:21;;;;;;;351.38;329.50;;;6.80;99.90;;;;;;12370310;28;20056;-35
2023/12/19 20:23:28;;;;;;;350.55;328.85;;;6.80;99.90;;;;;;12488418;28;20070;-35
2023/12/19 20:29:31;;;;;;;351.20;329.52;;;6.80;99.90;;;;;;12471365;28;20044;-35
2023/12/19 20:35:33;;;;;;;350.48;328.88;;;6.80;99.90;;;;;;12447011;28;20057;-36
2023/12/19 20:41:37;;;;;;;345.80;324.55;;;6.80;99.90;;;;;;12375315;28;20052;-35
2023/12/19 20:47:39;;;;;;;344.37;322.90;;;6.80;99.90;;;;;;12358411;28;20709;-35
2023/12/19 20:53:41;;;;;;;341.67;320.52;;;6.80;99.90;;;;;;12337379;28;20050;-35
2023/12/19 20:59:43;;;;;;;353.20;331.65;;;6.80;99.90;;;;;;12356124;28;20055;-35
2023/12/19 21:05:45;;;;;;;348.05;327.08;;;6.70;99.90;;;;;;12321847;28;20065;-35
2023/12/19 21:11:48;;;;;;;346.90;325.98;;;6.70;99.90;;;;;;12335858;28;20059;-35
2023/12/19 21:17:50;;;;;;;347.73;326.25;;;6.70;99.90;;;;;;12343190;28;20059;-35
2023/12/19 21:23:52;;;;;;;354.70;333.05;;;6.70;99.90;;;;;;12406429;28;20059;-35
2023/12/19 21:29:55;;;;;;;358.83;337.08;;;6.70;99.90;;;;;;12426059;28;20045;-36
2023/12/19 21:35:57;;;;;;;366.40;343.73;;;6.70;99.90;;;;;;12403712;28;20046;-35
2023/12/19 21:41:59;;;;;;;355.48;333.73;;;6.80;99.90;;;;;;12382087;28;20044;-35
2023/12/19 21:48:01;;;;;;;364.23;341.88;;;6.80;99.90;;;;;;12414594;28;20064;-35
2023/12/19 21:54:04;;;;;;;369.33;346.63;;;6.90;99.90;;;;;;12411969;28;20046;-34
2023/12/19 22:00:07;;;;;;;367.65;345.13;;;6.90;99.90;;;;;;12365796;28;20497;-35
2023/12/19 22:06:14;;;;;;;366.20;343.73;;;7.00;99.90;;;;;;12434318;28;20049;-35
2023/12/19 22:12:16;;;;;;;382.27;358.75;;;7.10;99.90;;;;;;12390393;28;20051;-35
2023/12/19 22:18:18;;;;;;;374.98;351.85;;;7.10;99.90;;;;;;12400425;28;20060;-35
2023/12/19 22:24:20;;;;;;;374.88;351.75;;;7.10;99.90;;;;;;12381433;28;20451;-35
2023/12/19 22:30:22;;;;;;;382.55;359.10;;;7.10;99.90;;;;;;12388682;28;20086;-35
2023/12/19 22:36:24;;;;;;;370.15;347.45;;;7.10;99.90;;;;;;12410861;28;20515;-35
2023/12/19 22:42:26;;;;;;;359.33;337.08;;;7.10;99.90;;;;;;12344302;28;20043;-35
2023/12/19 22:48:29;;;;;;;348.80;327.33;;;7.20;99.90;;;;;;12336355;28;20085;-36
2023/12/19 22:54:32;;;;;;;352.70;330.92;;;7.20;99.90;;;;;;12312676;28;20050;-35
2023/12/19 23:00:35;;;;;;;344.60;323.27;;;7.30;99.90;;;;;;12317613;28;20051;-35
2023/12/19 23:06:37;;;;;;;356.77;335.02;;;7.20;99.90;;;;;;12415036;28;20054;-36
2023/12/19 23:12:40;;;;;;;340.23;319.10;;;7.20;99.90;;;;;;12417417;28;20121;-35
2023/12/19 23:18:42;;;;;;;332.37;311.93;;;7.20;99.90;;;;;;12382559;28;20055;-35
2023/12/19 23:24:44;;;;;;;316.63;296.90;;;7.20;99.90;;;;;;12420898;28;20146;-35
2023/12/19 23:30:46;;;;;;;311.30;292.05;;;7.10;99.90;;;;;;12426667;28;20076;-35
2023/12/19 23:36:48;;;;;;;311.40;291.83;;;7.00;99.90;;;;;;12407546;28;20043;-36
2023/12/19 23:42:50;;;;;;;285.73;267.38;;;7.00;99.90;;;;;;12405340;28;20108;-35
2023/12/19 23:48:52;;;;;;;259.45;242.65;;;6.90;99.90;;;;;;12388098;28;20415;-35
2023/12/19 23:54:55;;;;;;;208.88;194.80;;;6.80;99.90;;;;;;12343574;28;20082;-35
